Aktuální počasí v Česku a ve světě - METAR

Seznam meteostanic umístěných nejčasteji na letišti v ČR a ve světě

Vyhledat místa podle abecedy:
A B C D E F G H I J K L M N O P Q R S T U V W X Y Z

Filtrovat:

ID stanice:
a/nebo
Název místa (fulltext):
 
Místo (ID)Naposledy načteno 
Šerák (Serak) 21.07.2024 07:00 UTC Zobrazit data
Místo: Šerák
Teplota: 17 °C (pocitová: 14.9 °C)
Vítr: 4 m/s z(e) 100°
Počasí: skorojasno
Dohlednost: 45 km
Zákl. oblačnosti: 1/8 690 m
Vlhkost: 68%
Svratouch (Svratouch) 21.07.2024 07:00 UTC Zobrazit data
Místo: Svratouch
Teplota: 22 °C (pocitová: 22.3 °C)
Vítr: 2 m/s z(e) 0°
Počasí: skorojasno
Dohlednost: 35 km
Zákl. oblačnosti: 1/8 1050 m
Vlhkost: 50%
Saipan Island (PGSN) 21.07.2024 07:54 UTC Zobrazit METAR
PGSN 210754Z 13012G22KT 10SM -RA FEW014 SCT028 28/26 A2986 RMK AO2 SLP131 P0004 T02830256
Salzburg (LOWS) 21.07.2024 03:50 UTC Zobrazit METAR
LOWS 210350Z 15009KT 9999 NSC 17/15 Q1010 NOSIG
Samara (UWWW) Zatím nenačteno  
San Andres Island (SKSP) 21.07.2024 08:00 UTC Zobrazit METAR
SKSP 210800Z VRB02KT 9999 FEW016 27/26 Q1011
San Jose (MRPV) 20.07.2024 20:00 UTC Zobrazit METAR
MRPV 202000Z 28006KT 9999 SCT030 SCT250 26/20 A3003 NOSIG
San Juan (TJSJ) 21.07.2024 07:56 UTC Zobrazit METAR
TJSJ 210756Z 07011KT 10SM FEW020 SCT031 SCT060 29/26 A3002 RMK AO2 SLP166 VCSH S T02890256 $
San Salvador (MSLP) 21.07.2024 08:00 UTC Zobrazit METAR
MSLP 210800Z 02007KT 9999 SCT077 26/25 Q1010 A2985 NOSIG
Sanaa (OYSN) 08.02.2017 13:00 UTC Zobrazit METAR
OYSN 081300Z 03008KT 9999 FEW030 25/M05 Q1022
Santiago (SCEL) 21.07.2024 08:00 UTC Zobrazit METAR
SCEL 210800Z 12003KT 4000 BR BKN010 OVC020 08/07 Q1021 NOSIG
Santiago (LEST) 21.07.2024 08:00 UTC Zobrazit METAR
LEST 210800Z 06006KT 020V100 9999 BKN028 15/11 Q1021 NOSIG
Santo Domingo (MDHE) 08.04.2012 12:00 UTC  
Santorini (LGSR) 21.07.2024 07:50 UTC Zobrazit METAR
LGSR 210750Z 28007KT 250V340 CAVOK 32/17 Q1007
Sao Tome (FPST) 21.07.2024 08:00 UTC Zobrazit METAR
FPST 210800Z 33004KT 9999 FEW025 25/21 Q1016 NOSIG
Sarajevo (LQSA) 21.07.2024 08:00 UTC Zobrazit METAR
LQSA 210800Z VRB02KT 8000 BKN022 22/18 Q1012 NOSIG
Saratov (UWSS) 06.03.2017 17:00 UTC Zobrazit METAR
UWSS 061700Z CAVOK 04/00 Q1024 R12/190055 NOSIG RMK QFE756
Sarmellek (LHSM) 21.07.2024 07:45 UTC Zobrazit METAR
LHSM 210745Z AUTO 24003KT 180V330 CAVOK 24/19 Q1010 NOSIG
Seinajoki (EFSI) 21.07.2024 07:50 UTC Zobrazit METAR
EFSI 210750Z AUTO 11006KT 080V140 9999 OVC019 17/14 Q1015
Seoul/Incheon (RKSI) 21.07.2024 08:00 UTC Zobrazit METAR
RKSI 210800Z 19012KT CAVOK 29/25 Q1007 NOSIG
Seville (LEZL) 21.07.2024 08:00 UTC Zobrazit METAR
LEZL 210800Z 26002KT CAVOK 25/16 Q1013 NOSIG
Seychelles (FSIA) 21.07.2024 08:00 UTC Zobrazit METAR
FSIA 210800Z 13010G21KT 090V210 9999 FEW023 29/23 Q1012 NOSIG
Shymkent (UAII) Zatím nenačteno  
Siauliai (EYSA) 21.07.2024 07:50 UTC Zobrazit METAR
EYSA 210750Z 34006KT 270V030 9999 FEW017 21/15 Q1012 NOSIG
Sibiu (LRSB) 21.07.2024 08:00 UTC Zobrazit METAR
LRSB 210800Z VRB02KT 9999 FEW018 22/17 Q1011
Simferopol' (UKFF) Zatím nenačteno  
Singapore (WSSS) 21.07.2024 08:00 UTC Zobrazit METAR
WSSS 210800Z 18012KT 9999 FEW020 BKN160 32/24 Q1009 NOSIG
Skopje (LWSK) 21.07.2024 07:50 UTC Zobrazit METAR
LWSK 210750Z VRB02KT CAVOK 31/21 Q1009 NOSIG
Soderhamn (ESNY) Zatím nenačteno  
Sofia (LBSF) 21.07.2024 08:00 UTC Zobrazit METAR
LBSF 210800Z 09007KT 060V170 CAVOK 28/16 Q1011 NOSIG
Sonderborg (EKSB) 21.07.2024 07:50 UTC Zobrazit METAR
EKSB 210750Z AUTO 13011KT 9999 FEW071/// 23/17 Q1007
Split (LDSP) 21.07.2024 08:00 UTC Zobrazit METAR
LDSP 210800Z 21004KT 100V260 9999 FEW035 28/20 Q1009 BECMG 23008KT
St. Denis (FMEE) 21.07.2024 08:00 UTC Zobrazit METAR
FMEE 210800Z AUTO 08014KT 9999 FEW074 26/20 Q1020 NOSIG
St. Georges (TGPY) 21.07.2024 08:00 UTC Zobrazit METAR
TGPY 210800Z 00000KT 9999 FEW018 28/25 Q1013 NOSIG
St. Johns (TAPA) 21.07.2024 08:00 UTC Zobrazit METAR
TAPA 210800Z 07007KT 030V110 9999 SCT020 28/23 Q1015 NOSIG
St. Petersburg (ULLI) Zatím nenačteno  
St. Pierre Island (LFVP) 21.07.2024 07:00 UTC Zobrazit METAR
LFVP 210700Z AUTO 21003KT 8000 NSC 15/15 Q1015
Stavanger (ENZV) 21.07.2024 07:50 UTC Zobrazit METAR
ENZV 210750Z 13017KT CAVOK 22/12 Q1005 TEMPO 14018G28KT SHRA BKN030CB
Stockholm (ESSA) 21.07.2024 07:50 UTC Zobrazit METAR
ESSA 210750Z 36005KT 9999 OVC007 16/15 Q1013 BECMG SCT010
Strasbourg (LFST) 21.07.2024 08:00 UTC Zobrazit METAR
LFST 210800Z AUTO VRB03KT 9999 FEW020 25/20 Q1009 TEMPO 4000 SHRA FEW035CB
Stuttgart (EDDS) 21.07.2024 07:50 UTC Zobrazit METAR
EDDS 210750Z AUTO 24004KT 180V280 CAVOK 24/18 Q1010 NOSIG
Reklama


Krásné fotografie přírody - (nejen) tapety na pozadí do počítače

Článek
Fotogalerie jarních květin
13. dubna 2023 12:19
Článek
Fotografie slunečné zimní krajiny
7. prosince 2022 17:13
Článek
Obrázky na téma slunečno
25. srpna 2022 05:03
Článek
Obrázky květin
5. června 2022 12:12



Vyhledat místo v databázi Slunecno.cz